Endurance — WDF7523 — position and weather

sailwx.info

Track history (hours):
 
Tides and Currents Weather Stations Pressure Air Temp Water Temp Dewpoint Dewpoint Depression Visibility Wind Speed Wind Dir Waves Ship Positions

Endurance

More information available from US FCC via Universal Licensing System and Coast Guard Vessel Documentation Center.

Last reported at 2014-Jul-10 08:21 UTC. Time now 2014-Aug-01 05:46 UTC.
Position N 47°16' W 122°26'.
Warning: this ship's position is 21 days out of date.

; draft 5.2 m.

Type: Tug. MMSI: 366797540.

Date/timePositionNaut miles runAvg speedWind from/ knotsBaromVisibWave heightAir tempDewpointWater temp
2014-Jul-10 08:21N 47°16' W 122°26'0 0.0
2014-Jul-10 07:32N 47°16' W 122°26'1 1.5
2014-Jul-10 06:33N 47°17' W 122°27'5 5.3
2014-Jul-10 05:33N 47°22' W 122°24'5 5.1
2014-Jul-10 04:33N 47°27' W 122°25'1 5.9
2014-Jul-10 04:25N 47°28' W 122°25'5 6.3
2014-Jul-10 03:33N 47°33' W 122°27'0 6.4
2014-Jul-10 03:30N 47°33' W 122°27'5 5.5
2014-Jul-10 02:33N 47°38' W 122°23'0 0.2
2014-Jul-10 02:30N 47°38' W 122°23'0 0.0
2014-Jul-10 01:33N 47°38' W 122°23'0 0.0
2014-Jul-10 01:24N 47°38' W 122°23'0 0.0
2014-Jul-10 00:33N 47°38' W 122°23'0 0.0
2014-Jul-10 00:24N 47°38' W 122°23'0 0.0
2014-Jul-09 23:33N 47°38' W 122°23'0 0.0
2014-Jul-09 22:33N 47°38' W 122°23'0 0.0
2014-Jul-09 21:33N 47°38' W 122°23'0 0.0
2014-Jul-09 21:24N 47°38' W 122°23'0 0.0
2014-Jul-09 20:33N 47°38' W 122°23'0 0.0
2014-Jul-09 20:24N 47°38' W 122°23'0 0.0
2014-Jul-09 19:33N 47°38' W 122°23'0 0.0
2014-Jul-09 19:24N 47°38' W 122°23'0 0.0
2014-Jul-09 18:33N 47°38' W 122°23'0 0.0
2014-Jul-09 17:33N 47°38' W 122°23'0 0.0
2014-Jul-09 16:33N 47°38' W 122°23'0 0.0
2014-Jul-09 15:33N 47°38' W 122°23'0 0.0
2014-Jul-09 14:33N 47°38' W 122°23'0 0.0
2014-Jul-09 13:33N 47°38' W 122°23'0 0.0
2014-Jul-09 12:57N 47°38' W 122°23'0 0.0
2014-Jul-09 12:33N 47°38' W 122°23'0 0.1
2014-Jul-09 12:27N 47°38' W 122°23'0 0.0
2014-Jul-09 11:33N 47°38' W 122°23'0 0.1
2014-Jul-09 11:27N 47°38' W 122°23'0 0.0
2014-Jul-09 10:33N 47°38' W 122°23'0 0.0
2014-Jul-09 09:33N 47°38' W 122°23'0 0.0
2014-Jul-09 09:21N 47°38' W 122°23'0 0.0
2014-Jul-09 08:33N 47°38' W 122°23'0 0.0
2014-Jul-09 08:27N 47°38' W 122°23'0 0.0
2014-Jul-09 07:33N 47°38' W 122°23'0 0.0
2014-Jul-09 07:26N 47°38' W 122°23'0 0.0
2014-Jul-09 06:33N 47°38' W 122°23'0 0.0
2014-Jul-09 06:26N 47°38' W 122°23'0 0.0
2014-Jul-09 05:56N 47°38' W 122°23'0 0.0
2014-Jul-09 05:33N 47°38' W 122°23'0 0.0
2014-Jul-09 04:33N 47°38' W 122°23'0 0.0
2014-Jul-09 04:26N 47°38' W 122°23'0 0.0
2014-Jul-09 03:33N 47°38' W 122°23'0 0.0
2014-Jul-09 03:26N 47°38' W 122°23'0 0.0
2014-Jul-09 02:33N 47°38' W 122°23'0 0.1
2014-Jul-09 02:26N 47°38' W 122°23'0 0.0
2014-Jul-09 01:33N 47°38' W 122°23'0 0.0
2014-Jul-09 01:26N 47°38' W 122°23'0 0.0
2014-Jul-09 00:33N 47°38' W 122°23'0 0.0
2014-Jul-09 00:26N 47°38' W 122°23'0 0.0
2014-Jul-08 23:33N 47°38' W 122°23'0 0.0
2014-Jul-08 23:26N 47°38' W 122°23'0 0.0
2014-Jul-08 22:33N 47°38' W 122°23'0 0.1
2014-Jul-08 22:25N 47°38' W 122°23'3 3.1
2014-Jul-08 21:33N 47°35' W 122°21'0 0.0
2014-Jul-08 21:16N 47°35' W 122°21'0 0.0
2014-Jul-08 20:25N 47°35' W 122°21'0 0.0
2014-Jul-08 20:25N 47°35' W 122°21'0 0.0
2014-Jul-08 19:25N 47°35' W 122°21'0 0.0
2014-Jul-08 19:25N 47°35' W 122°21'0 0.0
2014-Jul-08 18:25N 47°35' W 122°21'0 0.0
2014-Jul-08 17:31N 47°35' W 122°21'0 0.0
2014-Jul-08 17:20N 47°35' W 122°21'4 5.5
2014-Jul-08 16:33N 47°38' W 122°26'0 7.2
2014-Jul-08 16:30N 47°38' W 122°27'1212.2
2014-Jul-08 15:33N 47°49' W 122°28'1 9.8
2014-Jul-08 15:30N 47°50' W 122°28'1010.7
2014-Jul-08 14:33N 47°59' W 122°36'10 9.5
2014-Jul-08 13:27N 48°08' W 122°43'7 8.4
2014-Jul-08 12:33N 48°14' W 122°49'1313.5
2014-Jul-08 11:33N 48°27' W 122°44'1414.2
2014-Jul-08 10:33N 48°42' W 122°44'1312.9
2014-Jul-08 09:32N 48°50' W 122°60'1313.1
2014-Jul-08 08:33N 48°58' W 123°15'1111.4
2014-Jul-08 07:33N 49°08' W 123°23'1211.8
2014-Jul-08 06:33N 49°19' W 123°17'8 7.7
2014-Jul-08 05:34N 49°18' W 123°05'1 0.6
2014-Jul-08 04:33N 49°18' W 123°04'0 0.5
2014-Jul-08 03:33N 49°18' W 123°05'4 4.5
2014-Jul-08 02:33N 49°19' W 123°12'6 5.6
2014-Jul-08 01:33N 49°18' W 123°20'4 3.9
2014-Jul-08 00:33N 49°18' W 123°26'5 5.3
2014-Jul-07 23:33N 49°20' W 123°34'6 6.1
2014-Jul-07 22:33N 49°22' W 123°42'6 6.4
2014-Jul-07 21:33N 49°24' W 123°52'1010.4
2014-Jul-07 20:33N 49°28' W 124°06'1010.2
2014-Jul-07 19:33N 49°33' W 124°20'1010.0
2014-Jul-07 18:33N 49°38' W 124°33'10 9.9
2014-Jul-07 17:32N 49°45' W 124°45'  
Track history (hours):
 
Tides and Currents Weather Stations Pressure Air Temp Water Temp Dewpoint Dewpoint Depression Visibility Wind Speed Wind Dir Waves Ship Positions

Endurance

More information available from US FCC via Universal Licensing System and Coast Guard Vessel Documentation Center.

Last reported at 2014-Jul-10 08:21 UTC. Time now 2014-Aug-01 05:46 UTC.
Position N 47°16' W 122°26'.
Warning: this ship's position is 21 days out of date.

; draft 5.2 m.

Type: Tug. MMSI: 366797540.

Date/timePositionNaut miles runAvg speedWind from/ knotsBaromVisibWave heightAir tempDewpointWater temp
2014-Jul-10 08:21N 47°16' W 122°26'0 0.0
2014-Jul-10 07:32N 47°16' W 122°26'1 1.5
2014-Jul-10 06:33N 47°17' W 122°27'5 5.3
2014-Jul-10 05:33N 47°22' W 122°24'5 5.1
2014-Jul-10 04:33N 47°27' W 122°25'1 5.9
2014-Jul-10 04:25N 47°28' W 122°25'5 6.3
2014-Jul-10 03:33N 47°33' W 122°27'0 6.4
2014-Jul-10 03:30N 47°33' W 122°27'5 5.5
2014-Jul-10 02:33N 47°38' W 122°23'0 0.2
2014-Jul-10 02:30N 47°38' W 122°23'0 0.0
2014-Jul-10 01:33N 47°38' W 122°23'0 0.0
2014-Jul-10 01:24N 47°38' W 122°23'0 0.0
2014-Jul-10 00:33N 47°38' W 122°23'0 0.0
2014-Jul-10 00:24N 47°38' W 122°23'0 0.0
2014-Jul-09 23:33N 47°38' W 122°23'0 0.0
2014-Jul-09 22:33N 47°38' W 122°23'0 0.0
2014-Jul-09 21:33N 47°38' W 122°23'0 0.0
2014-Jul-09 21:24N 47°38' W 122°23'0 0.0
2014-Jul-09 20:33N 47°38' W 122°23'0 0.0
2014-Jul-09 20:24N 47°38' W 122°23'0 0.0
2014-Jul-09 19:33N 47°38' W 122°23'0 0.0
2014-Jul-09 19:24N 47°38' W 122°23'0 0.0
2014-Jul-09 18:33N 47°38' W 122°23'0 0.0
2014-Jul-09 17:33N 47°38' W 122°23'0 0.0
2014-Jul-09 16:33N 47°38' W 122°23'0 0.0
2014-Jul-09 15:33N 47°38' W 122°23'0 0.0
2014-Jul-09 14:33N 47°38' W 122°23'0 0.0
2014-Jul-09 13:33N 47°38' W 122°23'0 0.0
2014-Jul-09 12:57N 47°38' W 122°23'0 0.0
2014-Jul-09 12:33N 47°38' W 122°23'0 0.1
2014-Jul-09 12:27N 47°38' W 122°23'0 0.0
2014-Jul-09 11:33N 47°38' W 122°23'0 0.1
2014-Jul-09 11:27N 47°38' W 122°23'0 0.0
2014-Jul-09 10:33N 47°38' W 122°23'0 0.0
2014-Jul-09 09:33N 47°38' W 122°23'0 0.0
2014-Jul-09 09:21N 47°38' W 122°23'0 0.0
2014-Jul-09 08:33N 47°38' W 122°23'0 0.0
2014-Jul-09 08:27N 47°38' W 122°23'0 0.0
2014-Jul-09 07:33N 47°38' W 122°23'0 0.0
2014-Jul-09 07:26N 47°38' W 122°23'0 0.0
2014-Jul-09 06:33N 47°38' W 122°23'0 0.0
2014-Jul-09 06:26N 47°38' W 122°23'0 0.0
2014-Jul-09 05:56N 47°38' W 122°23'0 0.0
2014-Jul-09 05:33N 47°38' W 122°23'0 0.0
2014-Jul-09 04:33N 47°38' W 122°23'0 0.0
2014-Jul-09 04:26N 47°38' W 122°23'0 0.0
2014-Jul-09 03:33N 47°38' W 122°23'0 0.0
2014-Jul-09 03:26N 47°38' W 122°23'0 0.0
2014-Jul-09 02:33N 47°38' W 122°23'0 0.1
2014-Jul-09 02:26N 47°38' W 122°23'0 0.0
2014-Jul-09 01:33N 47°38' W 122°23'0 0.0
2014-Jul-09 01:26N 47°38' W 122°23'0 0.0
2014-Jul-09 00:33N 47°38' W 122°23'0 0.0
2014-Jul-09 00:26N 47°38' W 122°23'0 0.0
2014-Jul-08 23:33N 47°38' W 122°23'0 0.0
2014-Jul-08 23:26N 47°38' W 122°23'0 0.0
2014-Jul-08 22:33N 47°38' W 122°23'0 0.1
2014-Jul-08 22:25N 47°38' W 122°23'3 3.1
2014-Jul-08 21:33N 47°35' W 122°21'0 0.0
2014-Jul-08 21:16N 47°35' W 122°21'0 0.0
2014-Jul-08 20:25N 47°35' W 122°21'0 0.0
2014-Jul-08 20:25N 47°35' W 122°21'0 0.0
2014-Jul-08 19:25N 47°35' W 122°21'0 0.0
2014-Jul-08 19:25N 47°35' W 122°21'0 0.0
2014-Jul-08 18:25N 47°35' W 122°21'0 0.0
2014-Jul-08 17:31N 47°35' W 122°21'0 0.0
2014-Jul-08 17:20N 47°35' W 122°21'4 5.5
2014-Jul-08 16:33N 47°38' W 122°26'0 7.2
2014-Jul-08 16:30N 47°38' W 122°27'1212.2
2014-Jul-08 15:33N 47°49' W 122°28'1 9.8
2014-Jul-08 15:30N 47°50' W 122°28'1010.7
2014-Jul-08 14:33N 47°59' W 122°36'10 9.5
2014-Jul-08 13:27N 48°08' W 122°43'7 8.4
2014-Jul-08 12:33N 48°14' W 122°49'1313.5
2014-Jul-08 11:33N 48°27' W 122°44'1414.2
2014-Jul-08 10:33N 48°42' W 122°44'1312.9
2014-Jul-08 09:32N 48°50' W 122°60'1313.1
2014-Jul-08 08:33N 48°58' W 123°15'1111.4
2014-Jul-08 07:33N 49°08' W 123°23'1211.8
2014-Jul-08 06:33N 49°19' W 123°17'8 7.7
2014-Jul-08 05:34N 49°18' W 123°05'1 0.6
2014-Jul-08 04:33N 49°18' W 123°04'0 0.5
2014-Jul-08 03:33N 49°18' W 123°05'4 4.5
2014-Jul-08 02:33N 49°19' W 123°12'6 5.6
2014-Jul-08 01:33N 49°18' W 123°20'4 3.9
2014-Jul-08 00:33N 49°18' W 123°26'5 5.3
2014-Jul-07 23:33N 49°20' W 123°34'6 6.1
2014-Jul-07 22:33N 49°22' W 123°42'6 6.4
2014-Jul-07 21:33N 49°24' W 123°52'1010.4
2014-Jul-07 20:33N 49°28' W 124°06'1010.2
2014-Jul-07 19:33N 49°33' W 124°20'1010.0
2014-Jul-07 18:33N 49°38' W 124°33'10 9.9
2014-Jul-07 17:32N 49°45' W 124°45'  

Dump ship's entire track history